createdAt,value
2022-10-14T00:01:06.094Z,40.61
2022-10-14T00:07:39.426Z,40.47
2022-10-14T00:14:10.461Z,40.38
2022-10-14T00:20:53.106Z,40.37
2022-10-14T00:27:27.461Z,40.4
2022-10-14T00:34:04.770Z,40.41
2022-10-14T00:40:35.429Z,40.5
2022-10-14T00:47:14.860Z,40.59
2022-10-14T00:54:08.625Z,40.46
2022-10-14T01:00:52.601Z,40.57
2022-10-14T01:07:36.609Z,40.49
2022-10-14T01:14:43.934Z,40.49
2022-10-14T01:22:01.805Z,40.38
2022-10-14T01:29:25.524Z,40.47
2022-10-14T01:36:30.903Z,40.41
2022-10-14T01:43:40.539Z,40.37
2022-10-14T01:50:46.091Z,40.42
2022-10-14T01:57:49.494Z,40.52
2022-10-14T02:04:25.113Z,40.44
2022-10-14T02:11:44.432Z,40.37
2022-10-14T02:19:01.010Z,40.49
2022-10-14T02:26:11.458Z,40.33
2022-10-14T02:33:01.311Z,39.94
2022-10-14T02:39:41.558Z,40.3
2022-10-14T02:46:18.345Z,40.35
2022-10-14T02:53:11.206Z,40.3
2022-10-14T02:59:51.912Z,40.3
2022-10-14T03:06:16.547Z,40.27
2022-10-14T03:12:50.415Z,40.24
2022-10-14T03:19:31.607Z,40.32
2022-10-14T03:26:00.580Z,40.36
2022-10-14T03:32:33.433Z,40.34
2022-10-14T03:38:57.060Z,40.32
2022-10-14T03:45:25.393Z,40.33
2022-10-14T03:52:01.038Z,40.31
2022-10-14T03:58:33.557Z,40.33
2022-10-14T04:05:02.955Z,40.49
2022-10-14T04:11:38.629Z,40.39
2022-10-14T04:18:05.412Z,40.38
2022-10-14T04:24:37.588Z,40.34
2022-10-14T04:31:06.497Z,40.35
2022-10-14T04:37:41.684Z,40.37
2022-10-14T04:44:27.022Z,40.39
2022-10-14T04:50:53.552Z,40.42
2022-10-14T04:57:30.991Z,40.32
2022-10-14T05:04:03.344Z,40.37
2022-10-14T05:10:32.674Z,40.24
2022-10-14T05:17:00.788Z,40.28
2022-10-14T05:23:35.996Z,40.26
2022-10-14T05:30:05.739Z,40.26
2022-10-14T05:36:40.785Z,40.26
2022-10-14T05:43:14.526Z,40.29
2022-10-14T05:49:38.997Z,40.27
2022-10-14T05:56:07.874Z,40.28
2022-10-14T06:02:46.622Z,40.26
2022-10-14T06:09:11.816Z,39.97
2022-10-14T06:15:51.374Z,40.12
2022-10-14T06:22:11.991Z,39.99
2022-10-14T06:28:41.225Z,39.92
2022-10-14T06:35:09.677Z,40.05
2022-10-14T06:41:43.096Z,39.88
2022-10-14T06:48:18.405Z,40.01
2022-10-14T06:54:49.384Z,40.01
2022-10-14T07:01:29.247Z,40.09
2022-10-14T07:07:56.744Z,40.04
2022-10-14T07:14:26.241Z,40.08
2022-10-14T07:21:09.933Z,40.02
2022-10-14T07:27:48.558Z,40.09
2022-10-14T07:34:19.041Z,40.02
2022-10-14T07:40:51.890Z,40.06
2022-10-14T07:47:23.482Z,40.09
2022-10-14T07:53:53.974Z,40.09
2022-10-14T08:00:44.817Z,40.05
2022-10-14T08:07:29.988Z,39.99
2022-10-14T08:14:04.278Z,40.07
2022-10-14T08:20:44.263Z,40.04
2022-10-14T08:27:18.253Z,40.02
2022-10-14T08:33:46.720Z,40.03
2022-10-14T08:40:43.390Z,39.99
2022-10-14T08:47:55.927Z,40.01
2022-10-14T08:54:55.151Z,39.94
2022-10-14T09:01:55.129Z,39.96
2022-10-14T09:08:49.799Z,39.97
2022-10-14T09:16:00.123Z,39.94
2022-10-14T09:22:48.757Z,39.96
2022-10-14T09:29:28.342Z,39.87
2022-10-14T09:36:31.118Z,39.93
2022-10-14T09:50:56.940Z,39.87
2022-10-14T09:58:07.148Z,39.96
2022-10-14T10:05:11.160Z,39.94
2022-10-14T10:12:23.588Z,39.91
2022-10-14T10:19:37.306Z,39.58
2022-10-14T10:27:00.530Z,39.72
2022-10-14T10:34:15.729Z,39.71
2022-10-14T10:41:17.760Z,39.75
2022-10-14T10:48:25.690Z,39.74
2022-10-14T10:55:32.735Z,39.78
2022-10-14T11:02:36.841Z,39.9
2022-10-14T11:09:26.730Z,39.96
2022-10-14T11:16:39.375Z,39.95
2022-10-14T11:23:41.904Z,40
2022-10-14T11:30:40.125Z,39.94
2022-10-14T11:37:48.077Z,40.05
2022-10-14T11:44:43.605Z,39.99
2022-10-14T11:51:52.568Z,40
2022-10-14T11:59:13.861Z,39.91
2022-10-14T12:06:26.570Z,39.98
2022-10-14T12:13:37.849Z,39.8
2022-10-14T12:20:49.857Z,39.85
2022-10-14T12:27:55.882Z,39.97
2022-10-14T12:34:40.927Z,39.94
2022-10-14T12:41:45.891Z,39.9
2022-10-14T12:48:56.013Z,39.95
2022-10-14T12:55:34.769Z,39.75
2022-10-14T13:02:37.019Z,39.9
2022-10-14T13:09:38.276Z,39.94
2022-10-14T13:16:53.207Z,39.87
2022-10-14T13:23:48.852Z,39.91
2022-10-14T13:30:46.802Z,39.89
2022-10-14T13:38:22.749Z,39.79
2022-10-14T13:45:10.091Z,39.75
2022-10-14T13:52:14.822Z,39.69
2022-10-14T13:59:39.056Z,39.77
2022-10-14T14:06:45.225Z,39.75
2022-10-14T14:13:30.843Z,39.88
2022-10-14T14:20:23.629Z,39.79
2022-10-14T14:27:15.221Z,39.85
2022-10-14T14:34:11.881Z,39.69
2022-10-14T14:40:59.226Z,39.67
2022-10-14T14:47:43.866Z,39.71
2022-10-14T14:54:28.826Z,39.73
2022-10-14T15:01:37.663Z,39.77
2022-10-14T15:08:21.002Z,39.8
2022-10-14T15:15:18.306Z,39.76
2022-10-14T15:22:16.894Z,39.83
2022-10-14T15:28:58.336Z,39.88
2022-10-14T15:35:46.815Z,39.93
2022-10-14T15:42:27.257Z,39.9
2022-10-14T15:49:29.360Z,39.68
2022-10-14T15:56:09.731Z,39.86
2022-10-14T16:02:52.833Z,39.8
2022-10-14T16:09:28.943Z,39.86
2022-10-14T16:16:08.997Z,39.78
2022-10-14T16:22:46.798Z,39.8
2022-10-14T16:29:18.815Z,39.9
2022-10-14T16:35:46.853Z,39.85
2022-10-14T16:42:19.708Z,39.87
2022-10-14T16:48:48.942Z,39.86
2022-10-14T16:55:23.968Z,39.92
2022-10-14T17:01:50.358Z,39.82
2022-10-14T17:08:29.398Z,39.91
2022-10-14T17:14:54.970Z,39.9
2022-10-14T17:21:23.941Z,39.9
2022-10-14T17:27:58.709Z,39.94
2022-10-14T17:34:29.340Z,39.84
2022-10-14T17:40:56.607Z,39.87
2022-10-14T17:47:32.856Z,39.88
2022-10-14T17:54:02.850Z,39.87
2022-10-14T18:00:46.990Z,39.81
2022-10-14T18:07:21.746Z,39.89
2022-10-14T18:14:01.973Z,39.86
2022-10-14T18:20:38.497Z,39.79
2022-10-14T18:27:05.297Z,39.85
2022-10-14T18:33:39.331Z,39.76
2022-10-14T18:40:11.340Z,39.9
2022-10-14T18:46:48.911Z,39.9
2022-10-14T18:53:29.262Z,39.85
2022-10-14T19:00:15.931Z,39.85
2022-10-14T19:06:55.991Z,39.88
2022-10-14T19:13:33.456Z,39.77
2022-10-14T19:20:14.953Z,39.87
2022-10-14T19:26:43.971Z,39.77
2022-10-14T19:33:13.991Z,39.89
2022-10-14T19:39:49.297Z,39.85
2022-10-14T19:46:17.261Z,39.84
2022-10-14T19:52:55.008Z,39.8
2022-10-14T19:59:20.835Z,39.79
2022-10-14T20:05:51.374Z,39.75
2022-10-14T20:12:24.415Z,39.79
2022-10-14T20:18:51.955Z,39.85
2022-10-14T20:25:21.054Z,39.94
2022-10-14T20:32:02.718Z,39.88
2022-10-14T20:38:34.289Z,39.95
2022-10-14T20:45:10.933Z,39.85
2022-10-14T20:51:47.469Z,39.84
2022-10-14T20:58:16.427Z,39.87
2022-10-14T21:04:56.290Z,39.89
2022-10-14T21:11:32.015Z,39.87
2022-10-14T21:18:07.411Z,39.93
2022-10-14T21:24:41.566Z,39.8
2022-10-14T21:31:09.054Z,39.8
2022-10-14T21:37:47.816Z,39.84
2022-10-14T21:44:15.858Z,39.87
2022-10-14T21:50:44.639Z,39.88
2022-10-14T21:57:10.460Z,39.82
2022-10-14T22:03:38.884Z,39.83
2022-10-14T22:10:08.885Z,39.86
2022-10-14T22:16:39.428Z,39.92
2022-10-14T22:23:20.127Z,39.89
2022-10-14T22:29:54.658Z,39.97
2022-10-14T22:36:28.014Z,39.96
2022-10-14T22:42:56.867Z,39.91
2022-10-14T22:49:20.321Z,39.86
2022-10-14T22:55:46.905Z,40.01
2022-10-14T23:02:20.391Z,39.97
2022-10-14T23:08:48.999Z,39.98
2022-10-14T23:15:14.354Z,39.96
2022-10-14T23:21:47.040Z,39.86
2022-10-14T23:28:19.241Z,39.81
2022-10-14T23:34:45.959Z,39.89
2022-10-14T23:41:35.872Z,39.83
2022-10-14T23:48:21.331Z,39.87
2022-10-14T23:54:47.234Z,39.86
